KTEB/TEB METAR and TAF weather

Enter ICAO airport designator
Station Type Date Time Source
KTEB METAR 2021/03/05 05:51 UTC NOAA

KTEB 050551Z 31016G23KT 10SM CLR M04/M12 A2987 RMK AO2 PK WND 32029/0522 SLP114 T10391122 10006 21039 56011


Station Type Date Time Source
KTEB Decoded METAR 2021/03/05 05:51 UTC NOAA

TETERBORO AIRPORT, NJ, United States (KTEB) 40-52N 74-03W 7M
Mar 05, 2021 - 12:51 AM EST / 2021.03.05 0551 UTC
Wind: from the NW (310 degrees) at 18 MPH (16 KT) gusting to 26 MPH (23 KT):0
Visibility: 10 mile(s):0
Sky conditions: clear
Temperature: 25.0 F (-3.9 C)
Windchill: 12 F (-11 C):1
Dew Point: 10.0 F (-12.2 C)
Relative Humidity: 52%
Pressure (altimeter): 29.87 in. Hg (1011 hPa)
Pressure tendency: 0.03 inches (1.1 hPa) lower than three hours ago
ob: KTEB 050551Z 31016G23KT 10SM CLR M04/M12 A2987 RMK AO2 PK WND 32029/0522 SLP114 T10391122 10006 21039 56011
cycle: 6

Station Type Date Time Source
KTEB TAF 2021/03/05 06:42 UTC NOAA

TAF KTEB 050540Z 0506/0612 31016G24KT P6SM SKC
FM051600 30017G26KT P6SM SKC
FM060000 29013G23KT P6SM SKC

Example: see airport list